Terminal Aerodrome Forecast
Issued by NWS

Home | Current Version | Previous Version | Text Only | Print | Product List | Glossary On
Versions: 1 2 3 4 5 6 7 8 9 10 11 12 13 14 15 16 17 18 19 20 21 22 23 24
000
FTUS43 KDVN 020709 AAA
TAFBRL
TAF AMD
KBRL 020709Z 0207/0306 36008KT 6SM BR OVC010
      TEMPO 0208/0212 2SM BR
     FM021200 02006KT 4SM BR OVC006
     FM021500 02007KT P6SM OVC020
     FM021700 03008KT P6SM BKN040 PROB30 0220/0224 6SM -SHRA
     FM030100 35003KT P6SM SCT050=

USA.gov is the U.S. government's official web portal to all federal, state and local government web resources and services.